createdAt,value
2019-06-08T00:02:23.008Z,97484.73
2019-06-08T00:04:52.512Z,97486.10
2019-06-08T00:07:23.115Z,97492.15
2019-06-08T00:09:52.682Z,97492.91
2019-06-08T00:12:23.246Z,97481.59
2019-06-08T00:14:52.937Z,97490.45
2019-06-08T00:17:35.836Z,97490.95
2019-06-08T00:19:53.733Z,97491.78
2019-06-08T00:22:23.880Z,97486.43
2019-06-08T00:24:53.484Z,97500.13
2019-06-08T00:27:23.361Z,97502.30
2019-06-08T00:29:54.035Z,97502.71
2019-06-08T00:32:24.518Z,97499.45
2019-06-08T00:34:54.061Z,97499.36
2019-06-08T00:37:24.909Z,97514.86
2019-06-08T00:39:54.495Z,97516.72
2019-06-08T00:42:25.392Z,97517.42
2019-06-08T00:44:55.108Z,97514.38
2019-06-08T00:47:24.782Z,97513.05
2019-06-08T00:49:54.310Z,97518.21
2019-06-08T00:52:25.481Z,97511.80
2019-06-08T00:54:55.090Z,97525.05
2019-06-08T00:57:25.943Z,97526.05
2019-06-08T00:59:55.599Z,97521.95
2019-06-08T01:02:26.657Z,97519.13
2019-06-08T01:04:56.384Z,97518.24
2019-06-08T01:07:26.273Z,97522.52
2019-06-08T01:09:55.785Z,97524.95
2019-06-08T01:12:26.740Z,97523.33
2019-06-08T01:14:56.500Z,97521.38
2019-06-08T01:17:27.526Z,97526.00
2019-06-08T01:19:57.246Z,97529.30
2019-06-08T01:22:27.732Z,97537.49
2019-06-08T01:24:57.297Z,97547.32
2019-06-08T01:27:28.133Z,97547.14
2019-06-08T01:29:57.736Z,97542.81
2019-06-08T01:32:28.476Z,97546.99
2019-06-08T01:34:58.021Z,97545.33
2019-06-08T01:37:27.526Z,97542.84
2019-06-08T01:39:57.086Z,97532.20
2019-06-08T01:42:27.697Z,97531.34
2019-06-08T01:44:57.406Z,97522.79
2019-06-08T01:47:28.199Z,97521.30
2019-06-08T01:49:57.798Z,97526.17
2019-06-08T01:52:28.743Z,97526.33
2019-06-08T01:54:58.337Z,97531.28
2019-06-08T01:57:29.267Z,97535.09
2019-06-08T01:59:58.860Z,97538.41
2019-06-08T02:02:28.373Z,97525.70
2019-06-08T02:04:57.889Z,97530.53
2019-06-08T02:07:28.405Z,97540.75
2019-06-08T02:09:57.981Z,97549.42
2019-06-08T02:12:28.789Z,97552.42
2019-06-08T02:14:58.419Z,97566.14
2019-06-08T02:17:27.887Z,97560.81
2019-06-08T02:19:57.376Z,97566.64
2019-06-08T02:22:26.878Z,97574.48
2019-06-08T02:24:56.436Z,97580.66
2019-06-08T02:27:27.214Z,97593.52
2019-06-08T02:29:57.376Z,97593.69
2019-06-08T02:32:28.622Z,97598.03
2019-06-08T02:34:58.147Z,97597.20
2019-06-08T02:37:28.688Z,97603.38
2019-06-08T02:39:58.286Z,97612.07
2019-06-08T02:42:28.505Z,97612.91
2019-06-08T02:44:59.059Z,97614.23
2019-06-08T02:47:30.326Z,97611.39
2019-06-08T02:49:59.989Z,97611.59
2019-06-08T02:52:31.792Z,97611.08
2019-06-08T02:55:01.425Z,97614.08
2019-06-08T02:57:33.104Z,97619.09
2019-06-08T03:00:02.927Z,97621.25
2019-06-08T03:02:36.266Z,97616.24
2019-06-08T03:05:05.927Z,97625.59
2019-06-08T03:07:38.965Z,97627.28
2019-06-08T03:10:09.171Z,97627.80
2019-06-08T03:12:42.243Z,97626.95
2019-06-08T03:15:10.790Z,97634.46
2019-06-08T03:17:42.080Z,97635.47
2019-06-08T03:20:11.920Z,97639.16
2019-06-08T03:22:43.846Z,97643.34
2019-06-08T03:25:12.758Z,97648.38
2019-06-08T03:27:43.221Z,97635.36
2019-06-08T03:30:19.046Z,97648.22
2019-06-08T03:32:50.673Z,97640.05
2019-06-08T03:35:15.558Z,97642.02
2019-06-08T03:37:45.070Z,97645.19
2019-06-08T03:40:14.837Z,97644.96
2019-06-08T03:42:44.533Z,97651.91
2019-06-08T03:45:14.576Z,97652.55
2019-06-08T03:47:45.636Z,97676.22
2019-06-08T03:50:15.430Z,97675.07
2019-06-08T03:52:46.302Z,97677.39
2019-06-08T03:55:16.069Z,97684.39
2019-06-08T03:57:46.308Z,97686.89
2019-06-08T04:00:16.189Z,97685.23
2019-06-08T04:02:46.729Z,97681.89
2019-06-08T04:05:16.395Z,97681.56
2019-06-08T04:07:46.539Z,97689.89
2019-06-08T04:10:16.392Z,97688.73
2019-06-08T04:12:46.220Z,97696.40
2019-06-08T04:15:16.528Z,97702.53
2019-06-08T04:17:46.422Z,97706.24
2019-06-08T04:20:16.653Z,97717.28
2019-06-08T04:22:47.150Z,97717.28
2019-06-08T04:25:17.246Z,97714.94
2019-06-08T04:27:47.064Z,97713.73
2019-06-08T04:30:16.950Z,97723.90
2019-06-08T04:32:47.578Z,97729.75
2019-06-08T04:35:17.903Z,97725.45
2019-06-08T04:37:47.478Z,97726.73
2019-06-08T04:40:17.054Z,97724.45
2019-06-08T04:42:50.486Z,97722.91
2019-06-08T04:45:18.975Z,97725.25
2019-06-08T04:47:50.166Z,97736.77
2019-06-08T04:50:23.583Z,97739.23
2019-06-08T04:52:50.949Z,97746.27
2019-06-08T04:55:20.528Z,97755.27
2019-06-08T04:57:50.823Z,97764.12
2019-06-08T05:00:20.782Z,97750.98
2019-06-08T05:02:51.165Z,97758.98
2019-06-08T05:05:20.842Z,97763.66
2019-06-08T05:07:50.582Z,97777.28
2019-06-08T05:10:20.907Z,97781.80
2019-06-08T05:12:50.476Z,97787.06
2019-06-08T05:15:20.084Z,97790.71
2019-06-08T05:17:49.814Z,97796.03
2019-06-08T05:20:19.524Z,97800.41
2019-06-08T05:22:49.761Z,97809.42
2019-06-08T05:25:19.573Z,97818.07
2019-06-08T05:27:49.599Z,97820.97
2019-06-08T05:30:19.322Z,97824.42
2019-06-08T05:32:49.637Z,97833.47
2019-06-08T05:35:19.295Z,97837.59
2019-06-08T05:37:49.835Z,97842.47
2019-06-08T05:40:19.701Z,97839.15
2019-06-08T05:42:49.970Z,97846.02
2019-06-08T05:45:20.091Z,97842.90
2019-06-08T05:47:50.140Z,97842.56
2019-06-08T05:50:19.805Z,97850.07
2019-06-08T05:52:50.292Z,97853.41
2019-06-08T05:55:20.074Z,97858.75
2019-06-08T05:57:50.545Z,97862.09
2019-06-08T06:00:21.356Z,97865.77
2019-06-08T06:02:51.041Z,97873.45
2019-06-08T06:05:20.830Z,97872.77
2019-06-08T06:07:51.202Z,97877.11
2019-06-08T06:10:20.956Z,97879.78
2019-06-08T06:12:51.162Z,97891.61
2019-06-08T06:15:20.805Z,97888.72
2019-06-08T06:17:51.586Z,97888.72
2019-06-08T06:20:21.297Z,97885.06
2019-06-08T06:22:52.558Z,97888.88
2019-06-08T06:25:22.501Z,97898.36
2019-06-08T06:27:52.725Z,97898.91
2019-06-08T06:30:22.611Z,97900.83
2019-06-08T06:32:52.157Z,97904.59
2019-06-08T06:35:21.745Z,97909.95
2019-06-08T06:37:52.096Z,97909.44
2019-06-08T06:40:21.812Z,97917.59
2019-06-08T06:42:52.377Z,97912.31
2019-06-08T06:45:21.981Z,97913.39
2019-06-08T06:47:52.693Z,97924.23
2019-06-08T06:50:22.425Z,97929.92
2019-06-08T06:52:52.946Z,97927.58
2019-06-08T06:55:25.372Z,97937.73
2019-06-08T06:57:53.772Z,97940.41
2019-06-08T07:00:32.881Z,97938.95
2019-06-08T07:03:02.492Z,97938.14
2019-06-08T07:05:32.069Z,97930.33
2019-06-08T07:08:01.565Z,97947.99
2019-06-08T07:10:31.133Z,97941.98
2019-06-08T07:13:01.051Z,97942.14
2019-06-08T07:15:30.717Z,97946.69
2019-06-08T07:18:00.498Z,97958.42
2019-06-08T07:20:29.978Z,97960.52
2019-06-08T07:22:59.548Z,97955.19
2019-06-08T07:25:29.546Z,97964.23
2019-06-08T07:27:59.361Z,97969.99
2019-06-08T07:30:28.912Z,97973.66
2019-06-08T07:32:59.396Z,97970.92
2019-06-08T07:35:29.313Z,97975.24
2019-06-08T07:37:59.746Z,97973.61
2019-06-08T07:40:29.469Z,97972.34
2019-06-08T07:43:00.285Z,97978.65
2019-06-08T07:45:29.987Z,97980.72
2019-06-08T07:48:00.606Z,97976.16
2019-06-08T07:50:30.228Z,97981.88
2019-06-08T07:52:59.805Z,97983.27
2019-06-08T07:55:29.293Z,97982.43
2019-06-08T07:58:00.259Z,97980.81
2019-06-08T08:00:29.968Z,97987.67
2019-06-08T08:02:59.636Z,97981.30
2019-06-08T08:05:29.208Z,97986.06
2019-06-08T08:07:59.071Z,97981.99
2019-06-08T08:10:28.632Z,97987.38
2019-06-08T08:12:58.945Z,97980.50
2019-06-08T08:15:28.739Z,97982.77
2019-06-08T08:17:59.548Z,97989.86
2019-06-08T08:21:21.779Z,97986.47
2019-06-08T08:24:11.427Z,97982.85
2019-06-08T08:26:40.977Z,97991.94
2019-06-08T08:29:10.521Z,97997.16
2019-06-08T08:31:40.040Z,97990.25
2019-06-08T08:34:09.540Z,97994.70
2019-06-08T08:36:39.052Z,97990.17
2019-06-08T08:39:08.789Z,97990.60
2019-06-08T08:41:39.078Z,97988.57
2019-06-08T08:44:08.774Z,97991.77
2019-06-08T08:46:38.817Z,97991.12
2019-06-08T08:49:12.331Z,97996.45
2019-06-08T08:51:39.790Z,97998.75
2019-06-08T08:54:09.355Z,97998.47
2019-06-08T08:56:38.983Z,97995.72
2019-06-08T08:59:10.821Z,97991.65
2019-06-08T09:01:39.716Z,97997.05
2019-06-08T09:04:09.310Z,97996.73
2019-06-08T09:06:39.003Z,98001.45
2019-06-08T09:09:09.036Z,98002.63
2019-06-08T09:11:41.220Z,98000.45
2019-06-08T09:14:14.155Z,97996.93
2019-06-08T09:16:41.277Z,97990.22
2019-06-08T09:19:10.819Z,97997.80
2019-06-08T09:21:40.297Z,97995.37
2019-06-08T09:24:10.080Z,97995.55
2019-06-08T09:26:39.736Z,97996.57
2019-06-08T09:29:11.261Z,97995.09
2019-06-08T09:31:40.503Z,97996.27
2019-06-08T09:34:14.986Z,97994.59
2019-06-08T09:36:41.385Z,98010.29
2019-06-08T09:39:12.865Z,98007.28
2019-06-08T09:41:42.157Z,98009.63
2019-06-08T09:44:12.113Z,98009.64
2019-06-08T09:46:41.892Z,98015.33
2019-06-08T09:49:12.106Z,98021.16
2019-06-08T09:51:41.731Z,98022.34
2019-06-08T09:54:12.776Z,98016.14
2019-06-08T09:56:42.752Z,98025.33
2019-06-08T09:59:15.175Z,98020.32
2019-06-08T10:01:43.482Z,98021.99
2019-06-08T10:04:13.914Z,98024.02
2019-06-08T10:06:43.584Z,98024.67
2019-06-08T10:09:13.547Z,98029.86
2019-06-08T10:11:44.307Z,98029.87
2019-06-08T10:14:13.855Z,98024.36
2019-06-08T10:16:43.373Z,98026.37
2019-06-08T10:19:12.875Z,98028.55
2019-06-08T10:21:43.269Z,98030.06
2019-06-08T10:24:12.977Z,98042.92
2019-06-08T10:26:42.444Z,98036.42
2019-06-08T10:29:12.037Z,98039.59
2019-06-08T10:31:43.633Z,98036.75
2019-06-08T10:34:12.878Z,98036.43
2019-06-08T10:36:42.489Z,98031.09
2019-06-08T10:39:12.280Z,98027.09
2019-06-08T10:41:41.951Z,98031.27
2019-06-08T10:44:13.955Z,98028.77
2019-06-08T10:46:42.813Z,98037.45
2019-06-08T10:49:14.438Z,98020.80
2019-06-08T10:51:43.759Z,98023.62
2019-06-08T10:54:13.350Z,98021.96
2019-06-08T10:56:42.949Z,98017.41
2019-06-08T10:59:12.739Z,98014.73
2019-06-08T11:01:42.452Z,98017.61
2019-06-08T11:04:12.296Z,98015.83
2019-06-08T11:06:41.921Z,98018.28
2019-06-08T11:09:14.341Z,98020.79
2019-06-08T11:11:42.765Z,98016.27
2019-06-08T11:14:13.379Z,98014.59
2019-06-08T11:16:43.409Z,98013.26
2019-06-08T11:19:13.950Z,98020.12
2019-06-08T11:21:43.910Z,98015.77
2019-06-08T11:24:23.683Z,98008.42
2019-06-08T11:26:47.705Z,97998.39
2019-06-08T11:29:18.431Z,98011.25
2019-06-08T11:31:48.415Z,98002.40
2019-06-08T11:34:21.830Z,98007.25
2019-06-08T11:36:51.575Z,97996.22
2019-06-08T11:39:21.511Z,98002.73
2019-06-08T11:41:51.092Z,97999.22
2019-06-08T11:44:20.585Z,97997.22
2019-06-08T11:46:50.113Z,97990.52
2019-06-08T11:49:19.603Z,97988.50
2019-06-08T11:51:49.241Z,97993.02
2019-06-08T11:54:32.998Z,97990.51
2019-06-08T11:56:52.177Z,97987.16
2019-06-08T11:59:21.850Z,97988.71
2019-06-08T12:01:51.335Z,97992.36
2019-06-08T12:04:20.861Z,97986.20
2019-06-08T12:06:50.356Z,97989.93
2019-06-08T12:09:19.845Z,97981.05
2019-06-08T12:11:49.346Z,97986.71
2019-06-08T12:14:18.839Z,97990.58
2019-06-08T12:16:48.689Z,97993.60
2019-06-08T12:19:20.799Z,97991.68
2019-06-08T12:21:49.846Z,97986.65
2019-06-08T12:24:19.547Z,97981.66
2019-06-08T12:26:52.673Z,97980.48
2019-06-08T12:29:20.347Z,97976.47
2019-06-08T12:31:49.848Z,97973.05
2019-06-08T12:34:19.373Z,97978.02
2019-06-08T12:36:48.881Z,97970.52
2019-06-08T12:39:19.728Z,97963.53
2019-06-08T12:41:49.645Z,97969.24
2019-06-08T12:44:21.794Z,97962.04
2019-06-08T12:46:50.417Z,97971.41
2019-06-08T12:49:20.478Z,97962.84
2019-06-08T12:51:51.722Z,97967.91
2019-06-08T12:54:21.469Z,97965.32
2019-06-08T12:56:50.959Z,97962.86
2019-06-08T12:59:22.789Z,97965.16
2019-06-08T13:01:51.731Z,97969.34
2019-06-08T13:04:23.457Z,97973.18
2019-06-08T13:06:52.516Z,97977.60
2019-06-08T13:09:22.087Z,97968.49
2019-06-08T13:11:51.599Z,97962.71
2019-06-08T13:14:21.124Z,97965.09
2019-06-08T13:16:52.941Z,97964.61
2019-06-08T13:19:21.870Z,97970.47
2019-06-08T13:21:51.352Z,97966.95
2019-06-08T13:24:20.859Z,97974.66
2019-06-08T13:26:50.871Z,97967.55
2019-06-08T13:29:22.057Z,97963.42
2019-06-08T13:31:51.694Z,97972.77
2019-06-08T13:34:24.086Z,97969.59
2019-06-08T13:36:52.422Z,97967.97
2019-06-08T13:39:23.105Z,97969.06
2019-06-08T13:41:52.880Z,97965.73
2019-06-08T13:44:22.391Z,97969.34
2019-06-08T13:46:51.982Z,97960.34
2019-06-08T13:49:26.708Z,97956.44
2019-06-08T13:51:52.672Z,97959.16
2019-06-08T13:54:23.050Z,97965.02
2019-06-08T13:56:53.397Z,97971.42
2019-06-08T13:59:26.445Z,97963.63
2019-06-08T14:01:54.203Z,97962.12
2019-06-08T14:04:24.905Z,97958.97
2019-06-08T14:06:54.654Z,97964.33
2019-06-08T14:09:25.035Z,97952.30
2019-06-08T14:11:54.589Z,97948.70
2019-06-08T14:14:24.663Z,97952.27
2019-06-08T14:16:55.269Z,97952.04
2019-06-08T14:19:26.109Z,97948.70
2019-06-08T14:21:56.141Z,97955.02
2019-06-08T14:24:29.933Z,97951.24
2019-06-08T14:26:58.441Z,97945.46
2019-06-08T14:29:28.984Z,97948.09
2019-06-08T14:31:59.251Z,97944.59
2019-06-08T14:34:29.859Z,97952.36
2019-06-08T14:37:00.100Z,97952.88
2019-06-08T14:39:31.693Z,97945.97
2019-06-08T14:42:00.976Z,97949.27
2019-06-08T14:44:32.119Z,97948.33
2019-06-08T14:47:13.740Z,97941.66
2019-06-08T14:49:48.803Z,97950.91
2019-06-08T14:52:20.249Z,97947.23
2019-06-08T14:54:51.162Z,97947.23
2019-06-08T14:57:21.255Z,97931.08
2019-06-08T14:59:50.919Z,97930.98
2019-06-08T15:02:21.186Z,97940.28
2019-06-08T15:04:50.842Z,97928.48
2019-06-08T15:07:23.217Z,97932.66
2019-06-08T15:09:51.694Z,97930.09
2019-06-08T15:12:21.483Z,97923.44
2019-06-08T15:14:51.165Z,97926.95
2019-06-08T15:17:21.853Z,97920.98
2019-06-08T15:19:51.390Z,97916.25
2019-06-08T15:22:22.292Z,97914.84
2019-06-08T15:24:51.859Z,97908.63
2019-06-08T15:27:24.432Z,97916.17
2019-06-08T15:29:52.747Z,97912.09
2019-06-08T15:32:22.960Z,97904.63
2019-06-08T15:34:52.594Z,97910.45
2019-06-08T15:37:23.157Z,97898.91
2019-06-08T15:39:52.670Z,97909.69
2019-06-08T15:42:22.535Z,97905.53
2019-06-08T15:44:52.104Z,97903.28
2019-06-08T15:47:22.182Z,97903.28
2019-06-08T15:49:51.780Z,97898.28
2019-06-08T15:52:22.350Z,97891.63
2019-06-08T15:54:51.917Z,97895.38
2019-06-08T15:57:22.730Z,97901.27
2019-06-08T15:59:52.620Z,97899.05
2019-06-08T16:02:23.076Z,97898.27
2019-06-08T16:04:53.041Z,97896.01
2019-06-08T16:07:27.686Z,97896.01
2019-06-08T16:09:53.980Z,97889.70
2019-06-08T16:12:24.279Z,97876.53
2019-06-08T16:14:53.908Z,97890.93
2019-06-08T16:17:23.489Z,97890.93
2019-06-08T16:19:53.347Z,97880.64
2019-06-08T16:22:23.028Z,97884.74
2019-06-08T16:24:52.537Z,97886.00
2019-06-08T16:27:22.087Z,97885.13
2019-06-08T16:29:51.585Z,97882.30
2019-06-08T16:32:21.176Z,97885.38
2019-06-08T16:34:50.753Z,97881.28
2019-06-08T16:37:20.298Z,97886.77
2019-06-08T16:39:49.812Z,97888.37
2019-06-08T16:42:19.308Z,97889.97
2019-06-08T16:44:48.811Z,97889.53
2019-06-08T16:47:18.315Z,97889.53
2019-06-08T16:49:47.824Z,97884.74
2019-06-08T16:52:17.458Z,97884.35
2019-06-08T16:54:46.982Z,97884.03
2019-06-08T16:57:16.465Z,97882.36
2019-06-08T16:59:45.985Z,97891.58
2019-06-08T17:02:16.929Z,97889.66
2019-06-08T17:04:46.671Z,97897.59
2019-06-08T17:07:16.245Z,97894.34
2019-06-08T17:09:45.825Z,97892.66
2019-06-08T17:12:15.406Z,97889.77
2019-06-08T17:14:44.984Z,97889.77
2019-06-08T17:17:14.478Z,97887.34
2019-06-08T17:19:44.022Z,97891.94
2019-06-08T17:22:13.868Z,97894.82
2019-06-08T17:24:43.428Z,97890.50
2019-06-08T17:27:26.365Z,97891.11
2019-06-08T17:29:44.118Z,97886.76
2019-06-08T17:32:13.698Z,97888.89
2019-06-08T17:34:43.259Z,97893.11
2019-06-08T17:37:12.760Z,97899.13
2019-06-08T17:39:42.792Z,97889.73
2019-06-08T17:42:12.389Z,97890.62
2019-06-08T17:44:42.603Z,97886.77
2019-06-08T17:47:12.293Z,97882.87
2019-06-08T17:49:43.211Z,97889.84
2019-06-08T17:52:12.971Z,97873.91
2019-06-08T17:54:43.283Z,97873.91
2019-06-08T17:57:12.958Z,97886.64
2019-06-08T17:59:42.770Z,97874.11
2019-06-08T18:02:18.921Z,97872.38
2019-06-08T18:04:44.521Z,97872.38
2019-06-08T18:07:14.128Z,97871.23
2019-06-08T18:09:45.088Z,97877.95
2019-06-08T18:12:14.726Z,97876.22
2019-06-08T18:14:45.171Z,97880.69
2019-06-08T18:17:17.730Z,97877.73
2019-06-08T18:19:49.528Z,97883.11
2019-06-08T18:22:18.662Z,97880.48
2019-06-08T18:24:48.344Z,97885.61
2019-06-08T18:27:18.310Z,97883.16
2019-06-08T18:29:48.676Z,97891.81
2019-06-08T18:32:18.473Z,97885.67
2019-06-08T18:34:48.154Z,97890.08
2019-06-08T18:37:18.339Z,97888.27
2019-06-08T18:39:49.426Z,97885.59
2019-06-08T18:42:19.732Z,97894.34
2019-06-08T18:44:49.315Z,97881.20
2019-06-08T18:47:18.855Z,97881.20
2019-06-08T18:49:48.877Z,97890.23
2019-06-08T18:52:18.515Z,97896.67
2019-06-08T18:54:49.689Z,97895.52
2019-06-08T18:57:19.540Z,97895.56
2019-06-08T18:59:52.958Z,97896.23
2019-06-08T19:02:20.335Z,97897.43
2019-06-08T19:04:49.914Z,97901.14
2019-06-08T19:07:19.480Z,97897.80
2019-06-08T19:09:49.773Z,97903.73
2019-06-08T19:12:19.802Z,97902.39
2019-06-08T19:14:52.149Z,97910.30
2019-06-08T19:17:21.180Z,97915.67
2019-06-08T19:19:52.293Z,97911.32
2019-06-08T19:22:22.362Z,97914.00
2019-06-08T19:24:51.852Z,97911.32
2019-06-08T19:27:21.512Z,97912.66
2019-06-08T19:29:51.671Z,97915.02
2019-06-08T19:32:21.487Z,97923.12
2019-06-08T19:34:53.885Z,97920.80
2019-06-08T19:37:22.276Z,97930.23
2019-06-08T19:39:51.781Z,97931.58
2019-06-08T19:42:35.605Z,97929.59
2019-06-08T19:45:01.562Z,97926.11
2019-06-08T19:47:23.785Z,97926.11
2019-06-08T19:49:54.878Z,97938.05
2019-06-08T19:52:24.577Z,97932.24
2019-06-08T19:54:54.246Z,97940.66
2019-06-08T19:57:23.750Z,97938.34
2019-06-08T19:59:53.237Z,97936.67
2019-06-08T20:02:22.796Z,97935.19
2019-06-08T20:04:53.264Z,97931.70
2019-06-08T20:07:23.304Z,97940.08
2019-06-08T20:09:53.908Z,97950.98
2019-06-08T20:12:23.604Z,97944.32
2019-06-08T20:14:53.807Z,97947.69
2019-06-08T20:17:23.303Z,97948.41
2019-06-08T20:19:53.428Z,97948.23
2019-06-08T20:22:23.094Z,97950.27
2019-06-08T20:24:55.768Z,97946.42
2019-06-08T20:27:24.653Z,97946.84
2019-06-08T20:29:54.279Z,97945.09
2019-06-08T20:32:23.810Z,97940.30
2019-06-08T20:34:53.755Z,97948.72
2019-06-08T20:37:23.387Z,97943.75
2019-06-08T20:40:03.007Z,97941.61
2019-06-08T20:42:24.223Z,97953.52
2019-06-08T20:44:53.871Z,97950.68
2019-06-08T20:47:23.347Z,97952.88
2019-06-08T20:49:53.456Z,97953.56
2019-06-08T20:52:23.108Z,97956.26
2019-06-08T20:54:53.559Z,97957.30
2019-06-08T20:57:23.265Z,97954.94
2019-06-08T20:59:54.016Z,97959.96
2019-06-08T21:02:23.961Z,97953.61
2019-06-08T21:04:54.907Z,97950.10
2019-06-08T21:07:24.706Z,97948.28
2019-06-08T21:09:55.363Z,97951.31
2019-06-08T21:12:25.503Z,97953.83
2019-06-08T21:14:55.526Z,97952.67
2019-06-08T21:17:27.369Z,97954.69
2019-06-08T21:19:57.891Z,97952.36
2019-06-08T21:22:27.908Z,97954.70
2019-06-08T21:25:00.008Z,97957.56
2019-06-08T21:27:28.767Z,97965.61
2019-06-08T21:30:06.735Z,97963.94
2019-06-08T21:32:29.565Z,97967.45
2019-06-08T21:35:00.257Z,97968.13
2019-06-08T21:37:29.986Z,97968.30
2019-06-08T21:40:03.919Z,97971.83
2019-06-08T21:42:30.690Z,97973.34
2019-06-08T21:45:02.186Z,97975.35
2019-06-08T21:47:31.405Z,97971.18
2019-06-08T21:50:00.976Z,97969.86
2019-06-08T21:52:30.492Z,97974.25
2019-06-08T21:55:00.636Z,97970.91
2019-06-08T21:57:30.333Z,97970.25
2019-06-08T22:00:19.204Z,97975.59
2019-06-08T22:02:31.027Z,97974.94
2019-06-08T22:05:03.316Z,97983.13
2019-06-08T22:07:31.824Z,97985.65
2019-06-08T22:10:02.804Z,97978.12
2019-06-08T22:12:32.424Z,97971.10
2019-06-08T22:15:03.095Z,97976.95
2019-06-08T22:17:32.707Z,97974.63
2019-06-08T22:20:03.460Z,97979.48
2019-06-08T22:22:33.077Z,97973.47
2019-06-08T22:25:03.691Z,97970.93
2019-06-08T22:27:33.241Z,97967.59
2019-06-08T22:30:09.555Z,97967.59
2019-06-08T22:32:34.377Z,97974.79
2019-06-08T22:35:04.089Z,97969.28
2019-06-08T22:37:33.589Z,97976.47
2019-06-08T22:40:03.652Z,97969.11
2019-06-08T22:42:33.264Z,97971.79
2019-06-08T22:45:03.900Z,97978.14
2019-06-08T22:47:33.552Z,97981.66
2019-06-08T22:50:03.768Z,97979.66
2019-06-08T22:52:33.418Z,97982.34
2019-06-08T22:55:07.037Z,97979.33
2019-06-08T22:57:34.202Z,97990.70
2019-06-08T23:00:14.566Z,97986.35
2019-06-08T23:02:35.098Z,97991.70
2019-06-08T23:05:06.467Z,97987.02
2019-06-08T23:07:37.436Z,97985.19
2019-06-08T23:10:08.877Z,97986.69
2019-06-08T23:12:38.738Z,97987.19
2019-06-08T23:15:09.153Z,97984.52
2019-06-08T23:17:39.021Z,97987.20
2019-06-08T23:20:08.993Z,97989.03
2019-06-08T23:22:38.824Z,97993.88
2019-06-08T23:25:09.612Z,97991.38
2019-06-08T23:27:39.229Z,97991.71
2019-06-08T23:30:10.328Z,97991.71
2019-06-08T23:32:39.973Z,97994.38
2019-06-08T23:35:09.795Z,97990.41
2019-06-08T23:37:39.432Z,97993.25
2019-06-08T23:40:09.089Z,97992.08
2019-06-08T23:42:38.663Z,97987.40
2019-06-08T23:45:10.510Z,97989.41
2019-06-08T23:47:39.707Z,97987.56
2019-06-08T23:50:11.478Z,97995.41
2019-06-08T23:52:41.158Z,97990.57
2019-06-08T23:55:11.941Z,97990.07
2019-06-08T23:57:41.654Z,97990.73
